LVJWA SADF-SUCM
Flight info
| Callsign | LVJWA |
|---|---|
| Flight time | 0h 22m |
| Altitude | 3000 |
| Route | FDO |
| Aircraft | P06T/L-SBDGRY/S |
Departure
| Time | 2026-04-17 22:44 |
|---|---|
| Airport | San Fernando Airport (SADF) |
Arrival
| Time | 2026-04-17 23:06 |
|---|---|
| Airport | Zagarzazú International Airport (SUCM) |
| Time | Latitude | Longitude | Altitude | Speed | Heading |
|---|---|---|---|---|---|
| 2026-04-17 22:20 | -34.45881 | -58.59130 | 20 ft | 0 kts | 241° |
| 2026-04-17 22:30 | -34.45891 | -58.59160 | 20 ft | 2 kts | 295° |
| 2026-04-17 22:30 | -34.45872 | -58.59172 | 20 ft | 0 kts | 333° |
| 2026-04-17 22:30 | -34.45870 | -58.59173 | 20 ft | 4 kts | 333° |
| 2026-04-17 22:31 | -34.45831 | -58.59142 | 20 ft | 10 kts | 61° |
| 2026-04-17 22:31 | -34.45794 | -58.59053 | 20 ft | 14 kts | 63° |
| 2026-04-17 22:31 | -34.45745 | -58.58940 | 20 ft | 16 kts | 62° |
| 2026-04-17 22:31 | -34.45689 | -58.58809 | 20 ft | 19 kts | 63° |
| 2026-04-17 22:32 | -34.45627 | -58.58665 | 20 ft | 20 kts | 62° |
| 2026-04-17 22:32 | -34.45558 | -58.58506 | 20 ft | 22 kts | 62° |
| 2026-04-17 22:32 | -34.45486 | -58.58336 | 20 ft | 23 kts | 63° |
| 2026-04-17 22:32 | -34.45440 | -58.58231 | 20 ft | 12 kts | 63° |
| 2026-04-17 22:33 | -34.45397 | -58.58130 | 20 ft | 15 kts | 63° |
| 2026-04-17 22:33 | -34.45349 | -58.58019 | 20 ft | 14 kts | 62° |
| 2026-04-17 22:33 | -34.45304 | -58.57987 | 20 ft | 6 kts | 326° |
| 2026-04-17 22:33 | -34.45256 | -58.58023 | 20 ft | 10 kts | 328° |
| 2026-04-17 22:34 | -34.45182 | -58.58076 | 20 ft | 14 kts | 329° |
| 2026-04-17 22:34 | -34.45089 | -58.58143 | 20 ft | 17 kts | 329° |
| 2026-04-17 22:34 | -34.44981 | -58.58220 | 20 ft | 19 kts | 329° |
| 2026-04-17 22:34 | -34.44907 | -58.58274 | 20 ft | 9 kts | 324° |
| 2026-04-17 22:35 | -34.44901 | -58.58279 | 20 ft | 0 kts | 321° |
| 2026-04-17 22:36 | -34.44900 | -58.58280 | 20 ft | 0 kts | 320° |
| 2026-04-17 22:36 | -34.44887 | -58.58292 | 20 ft | 13 kts | 322° |
| 2026-04-17 22:36 | -34.44856 | -58.58380 | 20 ft | 11 kts | 237° |
| 2026-04-17 22:36 | -34.44868 | -58.58397 | 20 ft | 0 kts | 224° |
| 2026-04-17 22:43 | -34.44907 | -58.58444 | 20 ft | 31 kts | 223° |
| 2026-04-17 22:43 | -34.45190 | -58.58776 | 20 ft | 76 kts | 224° |
| 2026-04-17 22:43 | -34.45604 | -58.59261 | 129 ft | 82 kts | 226° |
| 2026-04-17 22:43 | -34.46045 | -58.59758 | 278 ft | 95 kts | 227° |
| 2026-04-17 22:44 | -34.46556 | -58.60323 | 525 ft | 102 kts | 221° |
| 2026-04-17 22:44 | -34.47109 | -58.60854 | 808 ft | 102 kts | 216° |
| 2026-04-17 22:44 | -34.47667 | -58.61372 | 1116 ft | 98 kts | 218° |
| 2026-04-17 22:44 | -34.48174 | -58.61903 | 1361 ft | 96 kts | 217° |
| 2026-04-17 22:45 | -34.48674 | -58.62430 | 1573 ft | 95 kts | 218° |
| 2026-04-17 22:45 | -34.49149 | -58.63003 | 1765 ft | 97 kts | 223° |
| 2026-04-17 22:45 | -34.49569 | -58.63603 | 2009 ft | 94 kts | 224° |
| 2026-04-17 22:45 | -34.49976 | -58.64203 | 2260 ft | 91 kts | 222° |
| 2026-04-17 22:46 | -34.50406 | -58.64819 | 2378 ft | 101 kts | 230° |
| 2026-04-17 22:46 | -34.50556 | -58.65703 | 2506 ft | 116 kts | 268° |
| 2026-04-17 22:46 | -34.50250 | -58.66651 | 2647 ft | 128 kts | 298° |
| 2026-04-17 22:46 | -34.49571 | -58.67383 | 2803 ft | 136 kts | 323° |
| 2026-04-17 22:47 | -34.48670 | -58.67786 | 2908 ft | 145 kts | 349° |
| 2026-04-17 22:47 | -34.47638 | -58.67695 | 2916 ft | 154 kts | 17° |
| 2026-04-17 22:47 | -34.46672 | -58.67127 | 2922 ft | 155 kts | 39° |
| 2026-04-17 22:47 | -34.45922 | -58.66216 | 2922 ft | 154 kts | 61° |
| 2026-04-17 22:48 | -34.45400 | -58.65090 | 2920 ft | 156 kts | 60° |
| 2026-04-17 22:48 | -34.44479 | -58.64375 | 2908 ft | 163 kts | 14° |
| 2026-04-17 22:48 | -34.43408 | -58.63940 | 2910 ft | 162 kts | 31° |
| 2026-04-17 22:48 | -34.42455 | -58.63220 | 2915 ft | 162 kts | 33° |
| 2026-04-17 22:49 | -34.41464 | -58.62571 | 2919 ft | 162 kts | 30° |
| 2026-04-17 22:49 | -34.40476 | -58.61907 | 2919 ft | 162 kts | 32° |
| 2026-04-17 22:49 | -34.39485 | -58.61237 | 2921 ft | 163 kts | 31° |
| 2026-04-17 22:49 | -34.38490 | -58.60569 | 2920 ft | 164 kts | 32° |
| 2026-04-17 22:50 | -34.37505 | -58.59901 | 2915 ft | 164 kts | 31° |
| 2026-04-17 22:50 | -34.36503 | -58.59233 | 2919 ft | 165 kts | 32° |
| 2026-04-17 22:50 | -34.35499 | -58.58552 | 2918 ft | 165 kts | 31° |
| 2026-04-17 22:50 | -34.34491 | -58.57876 | 2917 ft | 165 kts | 31° |
| 2026-04-17 22:51 | -34.33485 | -58.57200 | 2920 ft | 165 kts | 31° |
| 2026-04-17 22:51 | -34.32477 | -58.56524 | 2915 ft | 166 kts | 32° |
| 2026-04-17 22:51 | -34.31470 | -58.55843 | 2910 ft | 165 kts | 31° |
| 2026-04-17 22:51 | -34.30465 | -58.55172 | 2912 ft | 165 kts | 31° |
| 2026-04-17 22:52 | -34.29465 | -58.54496 | 2911 ft | 164 kts | 31° |
| 2026-04-17 22:52 | -34.28474 | -58.53833 | 2912 ft | 165 kts | 31° |
| 2026-04-17 22:52 | -34.27470 | -58.53159 | 2908 ft | 165 kts | 32° |
| 2026-04-17 22:52 | -34.26464 | -58.52481 | 2911 ft | 166 kts | 31° |
| 2026-04-17 22:53 | -34.25449 | -58.51805 | 2909 ft | 166 kts | 32° |
| 2026-04-17 22:53 | -34.24441 | -58.51124 | 2909 ft | 166 kts | 31° |
| 2026-04-17 22:53 | -34.23434 | -58.50452 | 2906 ft | 165 kts | 31° |
| 2026-04-17 22:53 | -34.22432 | -58.49781 | 2908 ft | 164 kts | 32° |
| 2026-04-17 22:54 | -34.21449 | -58.49116 | 2905 ft | 164 kts | 31° |
| 2026-04-17 22:54 | -34.20450 | -58.48453 | 2906 ft | 164 kts | 31° |
| 2026-04-17 22:54 | -34.19451 | -58.47781 | 2907 ft | 165 kts | 32° |
| 2026-04-17 22:54 | -34.18446 | -58.47106 | 2908 ft | 165 kts | 31° |
| 2026-04-17 22:55 | -34.17435 | -58.46431 | 2907 ft | 166 kts | 31° |
| 2026-04-17 22:55 | -34.16426 | -58.45758 | 2905 ft | 166 kts | 32° |
| 2026-04-17 22:55 | -34.15421 | -58.45081 | 2903 ft | 166 kts | 31° |
| 2026-04-17 22:55 | -34.14409 | -58.44406 | 2907 ft | 166 kts | 31° |
| 2026-04-17 22:56 | -34.13395 | -58.43727 | 2904 ft | 166 kts | 31° |
| 2026-04-17 22:56 | -34.12383 | -58.43051 | 2900 ft | 167 kts | 30° |
| 2026-04-17 22:56 | -34.11380 | -58.42382 | 2901 ft | 166 kts | 31° |
| 2026-04-17 22:56 | -34.10372 | -58.41706 | 2899 ft | 165 kts | 31° |
| 2026-04-17 22:57 | -34.09370 | -58.41039 | 2899 ft | 166 kts | 31° |
| 2026-04-17 22:57 | -34.08357 | -58.40359 | 2903 ft | 165 kts | 31° |
| 2026-04-17 22:57 | -34.07350 | -58.39689 | 2902 ft | 166 kts | 31° |
| 2026-04-17 22:57 | -34.06338 | -58.39012 | 2906 ft | 166 kts | 30° |
| 2026-04-17 22:58 | -34.05326 | -58.38339 | 2901 ft | 166 kts | 30° |
| 2026-04-17 22:58 | -34.04315 | -58.37662 | 2900 ft | 165 kts | 31° |
| 2026-04-17 22:58 | -34.03311 | -58.36992 | 2901 ft | 165 kts | 31° |
| 2026-04-17 22:58 | -34.02305 | -58.36324 | 2902 ft | 165 kts | 31° |
| 2026-04-17 22:59 | -34.01297 | -58.35650 | 2898 ft | 166 kts | 31° |
| 2026-04-17 22:59 | -34.00282 | -58.34975 | 2900 ft | 167 kts | 31° |
| 2026-04-17 22:59 | -33.99267 | -58.34298 | 2905 ft | 166 kts | 32° |
| 2026-04-17 22:59 | -33.98262 | -58.33627 | 2908 ft | 167 kts | 31° |
| 2026-04-17 23:00 | -33.97248 | -58.32953 | 2902 ft | 167 kts | 31° |
| 2026-04-17 23:00 | -33.96228 | -58.32274 | 2899 ft | 166 kts | 32° |
| 2026-04-17 23:00 | -33.95217 | -58.31602 | 2899 ft | 166 kts | 31° |
| 2026-04-17 23:00 | -33.94203 | -58.30927 | 2900 ft | 166 kts | 31° |
| 2026-04-17 23:01 | -33.93123 | -58.30465 | 2890 ft | 166 kts | 359° |
| 2026-04-17 23:01 | -33.92098 | -58.30925 | 2890 ft | 154 kts | 309° |
| 2026-04-17 23:01 | -33.91702 | -58.31996 | 2888 ft | 133 kts | 259° |
| 2026-04-17 23:01 | -33.92085 | -58.32868 | 2889 ft | 117 kts | 211° |
| 2026-04-17 23:02 | -33.92786 | -58.33337 | 2905 ft | 116 kts | 205° |
| 2026-04-17 23:02 | -33.93558 | -58.33610 | 2904 ft | 116 kts | 191° |
| 2026-04-17 23:02 | -33.94350 | -58.33843 | 2908 ft | 119 kts | 194° |
| 2026-04-17 23:02 | -33.95168 | -58.34094 | 2915 ft | 122 kts | 193° |
| 2026-04-17 23:03 | -33.95925 | -58.34261 | 2767 ft | 104 kts | 187° |
| 2026-04-17 23:03 | -33.96658 | -58.34227 | 2450 ft | 108 kts | 180° |
| 2026-04-17 23:03 | -33.97420 | -58.34189 | 2025 ft | 111 kts | 180° |
| 2026-04-17 23:03 | -33.98206 | -58.34099 | 1598 ft | 113 kts | 175° |
| 2026-04-17 23:04 | -33.98950 | -58.33878 | 1237 ft | 112 kts | 162° |
| 2026-04-17 23:04 | -33.99573 | -58.33359 | 967 ft | 111 kts | 132° |
| 2026-04-17 23:04 | -33.99791 | -58.32471 | 697 ft | 114 kts | 89° |
| 2026-04-17 23:04 | -33.99600 | -58.31673 | 650 ft | 87 kts | 71° |
| 2026-04-17 23:05 | -33.99222 | -58.31161 | 496 ft | 87 kts | 354° |
| 2026-04-17 23:05 | -33.98703 | -58.31530 | 248 ft | 90 kts | 320° |
| 2026-04-17 23:05 | -33.98210 | -58.31820 | 222 ft | 73 kts | 328° |
| 2026-04-17 23:05 | -33.97729 | -58.32120 | 152 ft | 85 kts | 347° |
| 2026-04-17 23:06 | -33.97157 | -58.32311 | 82 ft | 87 kts | 340° |
| 2026-04-17 23:06 | -33.96670 | -58.32515 | 42 ft | 58 kts | 336° |
| 2026-04-17 23:06 | -33.96432 | -58.32608 | 38 ft | 13 kts | 349° |
| 2026-04-17 23:06 | -33.96417 | -58.32647 | 38 ft | 4 kts | 242° |
| 2026-04-17 23:07 | -33.96464 | -58.32633 | 37 ft | 13 kts | 160° |
| 2026-04-17 23:07 | -33.96543 | -58.32604 | 39 ft | 10 kts | 163° |
| 2026-04-17 23:07 | -33.96598 | -58.32584 | 40 ft | 7 kts | 161° |
| 2026-04-17 23:07 | -33.96654 | -58.32558 | 40 ft | 13 kts | 161° |
| 2026-04-17 23:08 | -33.96734 | -58.32530 | 40 ft | 11 kts | 165° |
| 2026-04-17 23:08 | -33.96773 | -58.32547 | 40 ft | 9 kts | 250° |
| 2026-04-17 23:08 | -33.96781 | -58.32569 | 40 ft | 4 kts | 182° |
| 2026-04-17 23:08 | -33.96783 | -58.32569 | 40 ft | 0 kts | 158° |